Terminal Aerodrome Forecast
Issued by NWS

Home | Current Version | Previous Version | Text Only | Print | Product List | Glossary On
Versions: 1 2 3 4 5 6 7 8 9 10 11 12 13
516
FTUS44 KEPZ 231125
TAFDMN
TAF
KDMN 231125Z 2312/2412 06006KT P6SM FEW250
     FM231700 10007KT P6SM FEW080 SCT250
     FM232000 32008KT P6SM FEW100 SCT150
     FM240500 29008KT P6SM FEW130=

USA.gov is the U.S. government's official web portal to all federal, state and local government web resources and services.